Terminal Aerodrome Forecast
Issued by NWS

Home | Current Version | Previous Version | Text Only | Print | Product List | Glossary Off
Versions: 1 2 3 4 5 6 7 8 9 10 11 12 13 14 15 16 17 18 19 20 21 22 23 24

854
FTUS43 KAPX 140202 AAA
TAFTVC
TAF AMD
KTVC 140202Z 1402/1424 26007KT 6SM -SHSN SCT025 OVC035
      TEMPO 1402/1406 2SM -SHSN BKN025
     FM140600 VRB03KT P6SM VCSH SCT025 OVC035
     FM140900 00000KT P6SM SCT040
     FM141500 16006KT P6SM SCT050=

USA.gov is the U.S. government's official web portal to all federal, state and local government web resources and services.